createdAt,value
2022-10-13T00:00:52.997Z,101169.44
2022-10-13T00:02:56.176Z,101166.09
2022-10-13T00:04:58.949Z,101166.19
2022-10-13T00:07:04.756Z,101175.72
2022-10-13T00:09:07.547Z,101170.47
2022-10-13T00:11:13.041Z,101168.84
2022-10-13T00:13:16.837Z,101166.31
2022-10-13T00:15:20.645Z,101165.31
2022-10-13T00:17:24.137Z,101168.81
2022-10-13T00:19:27.721Z,101166.19
2022-10-13T00:21:30.535Z,101160.88
2022-10-13T00:23:36.734Z,101168.69
2022-10-13T00:25:44.433Z,101166.94
2022-10-13T00:27:48.014Z,101173.00
2022-10-13T00:29:50.740Z,101176.47
2022-10-13T00:31:53.503Z,101162.56
2022-10-13T00:33:58.150Z,101158.22
2022-10-13T00:36:00.870Z,101164.22
2022-10-13T00:38:03.666Z,101162.53
2022-10-13T00:40:09.379Z,101161.63
2022-10-13T00:42:13.399Z,101161.59
2022-10-13T00:44:59.670Z,101158.09
2022-10-13T00:47:02.478Z,101166.66
2022-10-13T00:49:09.511Z,101163.19
2022-10-13T00:51:16.099Z,101164.97
2022-10-13T00:53:22.305Z,101167.63
2022-10-13T00:55:31.770Z,101166.69
2022-10-13T00:57:34.664Z,101170.91
2022-10-13T00:59:40.084Z,101166.59
2022-10-13T01:01:42.859Z,101166.59
2022-10-13T01:03:45.686Z,101164.00
2022-10-13T01:05:49.603Z,101163.16
2022-10-13T01:07:53.876Z,101161.41
2022-10-13T01:09:56.872Z,101155.28
2022-10-13T01:12:10.978Z,101160.50
2022-10-13T01:14:21.420Z,101164.75
2022-10-13T01:16:29.523Z,101157.72
2022-10-13T01:18:41.989Z,101159.41
2022-10-13T01:21:20.597Z,101154.09
2022-10-13T01:23:50.870Z,101160.13
2022-10-13T01:26:18.205Z,101161.00
2022-10-13T01:28:42.474Z,101154.84
2022-10-13T01:30:51.508Z,101160.91
2022-10-13T01:33:18.660Z,101156.63
2022-10-13T01:35:30.066Z,101154.88
2022-10-13T01:37:37.152Z,101159.22
2022-10-13T01:39:46.081Z,101158.44
2022-10-13T01:41:54.959Z,101160.13
2022-10-13T01:44:05.050Z,101158.41
2022-10-13T01:46:15.240Z,101158.31
2022-10-13T01:48:18.906Z,101152.19
2022-10-13T01:50:27.538Z,101162.63
2022-10-13T01:52:36.273Z,101155.78
2022-10-13T01:54:39.023Z,101159.28
2022-10-13T01:56:41.779Z,101154.84
2022-10-13T01:58:45.661Z,101164.38
2022-10-13T02:01:00.300Z,101164.34
2022-10-13T02:03:13.354Z,101159.06
2022-10-13T02:05:26.693Z,101159.06
2022-10-13T02:07:36.317Z,101163.34
2022-10-13T02:09:45.777Z,101167.69
2022-10-13T02:11:55.012Z,101157.19
2022-10-13T02:14:05.307Z,101159.81
2022-10-13T02:16:08.825Z,101157.19
2022-10-13T02:18:15.230Z,101155.44
2022-10-13T02:20:20.166Z,101151.03
2022-10-13T02:22:27.864Z,101151.84
2022-10-13T02:24:31.693Z,101148.41
2022-10-13T02:26:36.242Z,101151.00
2022-10-13T02:28:42.434Z,101144.00
2022-10-13T02:30:46.903Z,101144.03
2022-10-13T02:32:49.688Z,101134.47
2022-10-13T02:34:53.940Z,101138.81
2022-10-13T02:36:56.660Z,101141.41
2022-10-13T02:38:59.504Z,101136.16
2022-10-13T02:41:02.946Z,101133.59
2022-10-13T02:43:05.901Z,101134.47
2022-10-13T02:45:10.184Z,101135.34
2022-10-13T02:47:13.239Z,101132.69
2022-10-13T02:49:15.950Z,101129.25
2022-10-13T02:51:20.049Z,101124.88
2022-10-13T02:53:22.844Z,101113.63
2022-10-13T02:55:25.640Z,101121.50
2022-10-13T02:57:32.434Z,101120.56
2022-10-13T02:59:35.225Z,101117.22
2022-10-13T03:01:41.288Z,101118.97
2022-10-13T03:03:44.409Z,101118.91
2022-10-13T03:05:47.213Z,101112.72
2022-10-13T03:07:51.771Z,101121.34
2022-10-13T03:09:54.544Z,101130.84
2022-10-13T03:11:57.552Z,101130.94
2022-10-13T03:14:00.412Z,101130.88
2022-10-13T03:16:03.379Z,101126.53
2022-10-13T03:18:06.338Z,101127.25
2022-10-13T03:20:10.417Z,101122.25
2022-10-13T03:22:15.316Z,101123.84
2022-10-13T03:24:19.482Z,101133.13
2022-10-13T03:26:22.239Z,101125.25
2022-10-13T03:28:25.245Z,101117.53
2022-10-13T03:30:29.503Z,101116.66
2022-10-13T03:32:32.280Z,101120.97
2022-10-13T03:34:35.069Z,101120.91
2022-10-13T03:36:37.926Z,101119.84
2022-10-13T03:38:41.127Z,101122.25
2022-10-13T03:40:46.043Z,101123.91
2022-10-13T03:42:48.810Z,101121.41
2022-10-13T03:44:56.105Z,101125.06
2022-10-13T03:46:59.356Z,101121.66
2022-10-13T03:49:02.149Z,101111.28
2022-10-13T03:51:06.911Z,101114.75
2022-10-13T03:53:12.479Z,101116.44
2022-10-13T03:55:15.595Z,101119.84
2022-10-13T03:57:19.701Z,101119.16
2022-10-13T03:59:22.504Z,101119.94
2022-10-13T04:01:27.394Z,101122.63
2022-10-13T04:03:30.266Z,101129.59
2022-10-13T04:05:34.878Z,101117.41
2022-10-13T04:07:37.585Z,101123.44
2022-10-13T04:09:47.809Z,101120.91
2022-10-13T04:11:52.086Z,101125.34
2022-10-13T04:13:57.085Z,101119.28
2022-10-13T04:16:03.819Z,101123.94
2022-10-13T04:18:23.833Z,101116.00
2022-10-13T04:20:27.190Z,101123.84
2022-10-13T04:22:30.656Z,101118.56
2022-10-13T04:24:33.427Z,101128.97
2022-10-13T04:26:37.652Z,101120.31
2022-10-13T04:28:43.495Z,101121.16
2022-10-13T04:30:49.569Z,101121.16
2022-10-13T04:32:52.685Z,101123.94
2022-10-13T04:34:55.487Z,101124.88
2022-10-13T04:36:58.384Z,101111.78
2022-10-13T04:39:01.279Z,101114.53
2022-10-13T04:41:04.969Z,101115.19
2022-10-13T04:43:07.799Z,101109.81
2022-10-13T04:45:11.071Z,101109.13
2022-10-13T04:47:17.611Z,101100.28
2022-10-13T04:49:20.391Z,101101.31
2022-10-13T04:51:25.721Z,101104.75
2022-10-13T04:53:29.844Z,101107.38
2022-10-13T04:55:32.941Z,101106.44
2022-10-13T04:57:35.818Z,101106.44
2022-10-13T04:59:38.617Z,101106.44
2022-10-13T05:01:41.412Z,101102.78
2022-10-13T05:03:52.391Z,101098.47
2022-10-13T05:05:55.308Z,101094.97
2022-10-13T05:07:58.037Z,101098.44
2022-10-13T05:10:00.827Z,101088.97
2022-10-13T05:12:03.619Z,101087.31
2022-10-13T05:14:06.407Z,101094.28
2022-10-13T05:16:10.458Z,101090.78
2022-10-13T05:18:13.400Z,101086.34
2022-10-13T05:20:17.694Z,101082.81
2022-10-13T05:22:20.691Z,101086.38
2022-10-13T05:24:31.151Z,101074.19
2022-10-13T05:26:36.786Z,101075.22
2022-10-13T05:28:40.152Z,101067.34
2022-10-13T05:30:42.932Z,101057.88
2022-10-13T05:32:46.833Z,101056.25
2022-10-13T05:34:52.671Z,101060.50
2022-10-13T05:36:56.859Z,101063.06
2022-10-13T05:39:01.552Z,101066.53
2022-10-13T05:41:04.791Z,101074.63
2022-10-13T05:43:07.552Z,101076.19
2022-10-13T05:45:12.094Z,101077.25
2022-10-13T05:47:14.825Z,101072.06
2022-10-13T05:49:17.565Z,101083.25
2022-10-13T05:51:25.137Z,101078.84
2022-10-13T05:53:31.896Z,101080.53
2022-10-13T05:55:34.649Z,101076.22
2022-10-13T05:57:41.053Z,101081.50
2022-10-13T05:59:48.615Z,101070.28
2022-10-13T06:01:53.275Z,101075.59
2022-10-13T06:03:59.806Z,101066.97
2022-10-13T06:06:02.857Z,101061.09
2022-10-13T06:08:05.943Z,101057.78
2022-10-13T06:10:11.886Z,101061.22
2022-10-13T06:12:14.929Z,101062.72
2022-10-13T06:14:17.689Z,101059.31
2022-10-13T06:16:20.463Z,101058.47
2022-10-13T06:18:23.784Z,101065.50
2022-10-13T06:20:27.380Z,101062.72
2022-10-13T06:22:30.177Z,101063.59
2022-10-13T06:24:32.897Z,101054.06
2022-10-13T06:26:36.996Z,101055.84
2022-10-13T06:28:39.835Z,101067.94
2022-10-13T06:30:46.859Z,101063.63
2022-10-13T06:32:50.683Z,101068.72
2022-10-13T06:34:53.486Z,101076.38
2022-10-13T06:36:56.347Z,101078.09
2022-10-13T06:38:59.079Z,101084.25
2022-10-13T06:41:02.019Z,101072.34
2022-10-13T06:43:09.100Z,101078.53
2022-10-13T06:45:17.183Z,101079.22
2022-10-13T06:47:19.991Z,101078.50
2022-10-13T06:49:24.163Z,101080.22
2022-10-13T06:51:26.924Z,101088.22
2022-10-13T06:53:29.977Z,101083.88
2022-10-13T06:55:32.721Z,101080.38
2022-10-13T06:57:35.501Z,101082.06
2022-10-13T06:59:41.996Z,101077.56
2022-10-13T07:01:44.883Z,101073.22
2022-10-13T07:03:50.244Z,101074.16
2022-10-13T07:05:55.964Z,101074.34
2022-10-13T07:07:58.739Z,101066.66
2022-10-13T07:10:01.467Z,101058.16
2022-10-13T07:12:04.443Z,101073.69
2022-10-13T07:14:07.207Z,101071.22
2022-10-13T07:16:12.160Z,101068.75
2022-10-13T07:18:14.927Z,101066.25
2022-10-13T07:20:17.795Z,101061.88
2022-10-13T07:22:20.582Z,101064.69
2022-10-13T07:24:23.399Z,101070.72
2022-10-13T07:26:26.203Z,101075.88
2022-10-13T07:28:29.055Z,101068.22
2022-10-13T07:30:32.035Z,101067.25
2022-10-13T07:32:36.993Z,101063.00
2022-10-13T07:34:42.811Z,101070.81
2022-10-13T07:36:45.558Z,101061.34
2022-10-13T07:38:48.409Z,101062.31
2022-10-13T07:40:51.381Z,101058.69
2022-10-13T07:42:54.155Z,101047.47
2022-10-13T07:44:56.967Z,101031.97
2022-10-13T07:47:02.558Z,101023.34
2022-10-13T07:49:06.704Z,101025.13
2022-10-13T07:51:11.291Z,101023.34
2022-10-13T07:53:15.066Z,101026.78
2022-10-13T07:55:18.000Z,101047.72
2022-10-13T07:57:20.871Z,101049.38
2022-10-13T07:59:23.667Z,101048.47
2022-10-13T08:01:26.641Z,101050.19
2022-10-13T08:03:30.219Z,101055.44
2022-10-13T08:05:34.417Z,101048.59
2022-10-13T08:07:39.275Z,101053.81
2022-10-13T08:09:42.254Z,101053.13
2022-10-13T08:11:45.024Z,101045.22
2022-10-13T08:13:49.669Z,101043.53
2022-10-13T08:15:56.358Z,101048.88
2022-10-13T08:17:59.228Z,101042.94
2022-10-13T08:20:02.176Z,101046.38
2022-10-13T08:22:09.610Z,101041.13
2022-10-13T08:24:15.160Z,101033.44
2022-10-13T08:26:21.063Z,101046.44
2022-10-13T08:28:25.811Z,101045.53
2022-10-13T08:30:28.894Z,101050.69
2022-10-13T08:32:31.748Z,101057.63
2022-10-13T08:34:36.462Z,101056.69
2022-10-13T08:36:39.292Z,101052.03
2022-10-13T08:38:43.441Z,101056.56
2022-10-13T08:40:48.177Z,101061.75
2022-10-13T08:42:52.277Z,101066.75
2022-10-13T08:45:39.619Z,101068.47
2022-10-13T08:47:39.299Z,101068.69
2022-10-13T08:49:46.073Z,101069.63
2022-10-13T08:51:48.865Z,101060.09
2022-10-13T08:53:53.045Z,101058.41
2022-10-13T08:55:58.847Z,101066.28
2022-10-13T08:58:07.087Z,101064.44
2022-10-13T09:00:13.634Z,101069.75
2022-10-13T09:02:24.556Z,101062.75
2022-10-13T09:04:31.803Z,101071.47
2022-10-13T09:06:38.780Z,101074.13
2022-10-13T09:08:46.306Z,101071.59
2022-10-13T09:10:52.244Z,101068.97
2022-10-13T09:12:55.969Z,101062.78
2022-10-13T09:15:01.804Z,101066.28
2022-10-13T09:17:19.768Z,101055.09
2022-10-13T09:19:27.199Z,101064.69
2022-10-13T09:21:30.206Z,101073.31
2022-10-13T09:23:34.411Z,101072.41
2022-10-13T09:25:42.599Z,101065.50
2022-10-13T09:27:50.278Z,101060.44
2022-10-13T09:29:53.727Z,101055.22
2022-10-13T09:32:14.082Z,101057.09
2022-10-13T09:34:25.008Z,101054.59
2022-10-13T09:36:34.323Z,101045.91
2022-10-13T09:38:37.193Z,101050.38
2022-10-13T09:42:54.203Z,101045.88
2022-10-13T09:45:00.260Z,101046.66
2022-10-13T09:47:05.244Z,101050.91
2022-10-13T09:49:22.084Z,101041.34
2022-10-13T09:51:45.875Z,101045.59
2022-10-13T09:53:54.676Z,101056.03
2022-10-13T09:56:09.892Z,101045.66
2022-10-13T09:58:16.759Z,101051.69
2022-10-13T10:00:22.634Z,101044.72
2022-10-13T10:02:32.181Z,101047.56
2022-10-13T10:04:41.801Z,101049.25
2022-10-13T10:06:46.288Z,101046.50
2022-10-13T10:09:04.863Z,101047.44
2022-10-13T10:11:13.279Z,101045.84
2022-10-13T10:13:17.428Z,101049.31
2022-10-13T10:15:25.141Z,101047.69
2022-10-13T10:17:34.717Z,101034.66
2022-10-13T10:19:48.803Z,101048.47
2022-10-13T10:22:03.980Z,101049.31
2022-10-13T10:24:22.596Z,101044.25
2022-10-13T10:26:32.821Z,101035.50
2022-10-13T10:28:48.477Z,101030.31
2022-10-13T10:31:01.027Z,101024.19
2022-10-13T10:33:09.633Z,101021.56
2022-10-13T10:35:15.135Z,101014.59
2022-10-13T10:37:21.464Z,101010.28
2022-10-13T10:39:33.469Z,101016.41
2022-10-13T10:41:45.127Z,101018.19
2022-10-13T10:43:53.764Z,101031.13
2022-10-13T10:45:58.627Z,101028.44
2022-10-13T10:48:05.688Z,101029.34
2022-10-13T10:50:14.294Z,101024.19
2022-10-13T10:52:25.258Z,101025.09
2022-10-13T10:54:49.233Z,101018.19
2022-10-13T10:56:56.925Z,101019.06
2022-10-13T10:59:12.389Z,101014.75
2022-10-13T11:01:25.825Z,101009.56
2022-10-13T11:03:41.162Z,101007.00
2022-10-13T11:06:01.040Z,100995.78
2022-10-13T11:08:04.429Z,100988.00
2022-10-13T11:10:22.418Z,100981.16
2022-10-13T11:12:25.752Z,100974.28
2022-10-13T11:14:31.855Z,100964.72
2022-10-13T11:16:39.665Z,100959.59
2022-10-13T11:19:05.621Z,100945.75
2022-10-13T11:21:08.549Z,100947.56
2022-10-13T11:23:32.720Z,100943.34
2022-10-13T11:25:39.900Z,100947.69
2022-10-13T11:27:46.137Z,100945.06
2022-10-13T11:29:56.788Z,100930.22
2022-10-13T11:31:59.609Z,100924.13
2022-10-13T11:34:03.465Z,100930.22
2022-10-13T11:36:37.897Z,100917.16
2022-10-13T11:38:58.003Z,100917.19
2022-10-13T11:41:13.599Z,100918.06
2022-10-13T11:43:32.526Z,100911.09
2022-10-13T11:46:09.442Z,100907.66
2022-10-13T11:48:53.505Z,100912.88
2022-10-13T11:51:10.330Z,100913.75
2022-10-13T11:53:18.675Z,100904.16
2022-10-13T11:55:31.805Z,100919.81
2022-10-13T11:57:34.540Z,100914.56
2022-10-13T11:59:38.411Z,100918.13
2022-10-13T12:01:46.254Z,100918.13
2022-10-13T12:03:50.928Z,100912.03
2022-10-13T12:05:56.883Z,100904.16
2022-10-13T12:08:05.030Z,100905.06
2022-10-13T12:10:18.875Z,100905.06
2022-10-13T12:12:23.527Z,100903.31
2022-10-13T12:14:33.363Z,100902.41
2022-10-13T12:16:36.164Z,100902.41
2022-10-13T12:18:41.421Z,100899.78
2022-10-13T12:20:44.210Z,100897.16
2022-10-13T12:22:48.387Z,100899.78
2022-10-13T12:24:59.475Z,100898.91
2022-10-13T12:27:11.545Z,100894.50
2022-10-13T12:29:15.860Z,100895.38
2022-10-13T12:31:21.111Z,100887.53
2022-10-13T12:33:29.046Z,100885.78
2022-10-13T12:35:34.653Z,100876.22
2022-10-13T12:37:38.253Z,100881.41
2022-10-13T12:39:41.788Z,100877.91
2022-10-13T12:41:46.892Z,100879.69
2022-10-13T12:43:51.570Z,100883.16
2022-10-13T12:45:54.318Z,100876.16
2022-10-13T12:47:57.161Z,100888.41
2022-10-13T12:50:24.677Z,100875.31
2022-10-13T12:52:28.837Z,100875.31
2022-10-13T12:54:33.599Z,100875.34
2022-10-13T12:56:36.516Z,100869.22
2022-10-13T12:58:44.441Z,100867.50
2022-10-13T13:00:57.070Z,100877.09
2022-10-13T13:03:01.860Z,100872.72
2022-10-13T13:05:04.983Z,100880.59
2022-10-13T13:07:26.220Z,100880.59
2022-10-13T13:09:31.506Z,100874.50
2022-10-13T13:11:36.854Z,100872.72
2022-10-13T13:13:45.117Z,100860.53
2022-10-13T13:15:52.659Z,100866.63
2022-10-13T13:17:58.650Z,100855.28
2022-10-13T13:20:01.691Z,100859.66
2022-10-13T13:22:05.388Z,100857.00
2022-10-13T13:24:21.739Z,100864.00
2022-10-13T13:26:26.091Z,100864.88
2022-10-13T13:28:31.091Z,100865.78
2022-10-13T13:30:34.568Z,100860.53
2022-10-13T13:32:37.332Z,100856.16
2022-10-13T13:34:40.394Z,100853.53
2022-10-13T13:36:43.431Z,100853.53
2022-10-13T13:38:46.539Z,100852.66
2022-10-13T13:40:49.318Z,100844.81
2022-10-13T13:42:53.540Z,100841.28
2022-10-13T13:44:56.579Z,100829.94
2022-10-13T13:46:59.359Z,100811.59
2022-10-13T13:49:02.674Z,100803.72
2022-10-13T13:51:05.596Z,100814.22
2022-10-13T13:53:08.366Z,100821.22
2022-10-13T13:55:11.196Z,100833.44
2022-10-13T13:57:15.483Z,100829.06
2022-10-13T13:59:19.593Z,100837.78
2022-10-13T14:01:23.578Z,100838.69
2022-10-13T14:03:26.481Z,100831.72
2022-10-13T14:05:29.306Z,100840.44
2022-10-13T14:07:32.417Z,100836.94
2022-10-13T14:09:35.230Z,100835.16
2022-10-13T14:11:38.026Z,100838.66
2022-10-13T14:13:40.800Z,100830.81
2022-10-13T14:15:44.991Z,100827.34
2022-10-13T14:17:47.731Z,100804.59
2022-10-13T14:19:50.481Z,100809.00
2022-10-13T14:21:53.264Z,100813.31
2022-10-13T14:23:56.136Z,100811.63
2022-10-13T14:26:01.861Z,100808.09
2022-10-13T14:28:05.251Z,100810.72
2022-10-13T14:30:09.103Z,100827.31
2022-10-13T14:32:13.428Z,100826.44
2022-10-13T14:34:16.289Z,100823.81
2022-10-13T14:36:19.079Z,100829.09
2022-10-13T14:38:21.868Z,100831.69
2022-10-13T14:40:24.772Z,100833.44
2022-10-13T14:42:27.505Z,100836.94
2022-10-13T14:44:30.280Z,100834.31
2022-10-13T14:46:33.062Z,100829.97
2022-10-13T14:48:38.451Z,100824.72
2022-10-13T14:50:41.155Z,100824.72
2022-10-13T14:52:43.930Z,100822.97
2022-10-13T14:54:47.500Z,100818.56
2022-10-13T14:56:50.316Z,100822.09
2022-10-13T14:58:54.701Z,100810.72
2022-10-13T15:00:58.131Z,100824.72
2022-10-13T15:03:00.926Z,100824.72
2022-10-13T15:05:05.879Z,100828.19
2022-10-13T15:07:08.764Z,100819.47
2022-10-13T15:09:12.688Z,100809.84
2022-10-13T15:11:16.789Z,100814.22
2022-10-13T15:13:19.516Z,100807.22
2022-10-13T15:15:24.075Z,100812.47
2022-10-13T15:17:27.973Z,100807.25
2022-10-13T15:19:30.778Z,100809.00
2022-10-13T15:21:34.980Z,100808.09
2022-10-13T15:23:39.765Z,100804.59
2022-10-13T15:25:50.978Z,100803.72
2022-10-13T15:27:53.869Z,100812.47
2022-10-13T15:29:56.609Z,100809.00
2022-10-13T15:32:10.256Z,100808.09
2022-10-13T15:34:13.015Z,100811.63
2022-10-13T15:36:16.155Z,100816.84
2022-10-13T15:38:21.858Z,100808.09
2022-10-13T15:40:24.767Z,100811.63
2022-10-13T15:42:27.613Z,100809.00
2022-10-13T15:44:51.118Z,100804.63
2022-10-13T15:47:07.416Z,100808.09
2022-10-13T15:49:10.917Z,100808.94
2022-10-13T15:51:16.655Z,100807.25
2022-10-13T15:53:21.068Z,100804.59
2022-10-13T15:55:23.992Z,100809.84
2022-10-13T15:57:26.891Z,100806.34
2022-10-13T15:59:29.693Z,100802.88
2022-10-13T16:01:32.981Z,100812.47
2022-10-13T16:03:36.027Z,100810.72
2022-10-13T16:05:41.105Z,100815.09
2022-10-13T16:07:44.078Z,100808.13
2022-10-13T16:09:48.160Z,100801.13
2022-10-13T16:11:53.247Z,100811.63
2022-10-13T16:13:56.197Z,100801.13
2022-10-13T16:15:59.430Z,100803.72
2022-10-13T16:18:02.217Z,100806.34
2022-10-13T16:20:06.382Z,100803.75
2022-10-13T16:22:09.332Z,100808.13
2022-10-13T16:24:12.158Z,100813.38
2022-10-13T16:26:18.166Z,100808.13
2022-10-13T16:28:21.178Z,100807.22
2022-10-13T16:30:24.063Z,100810.75
2022-10-13T16:32:26.927Z,100815.09
2022-10-13T16:34:30.144Z,100814.22
2022-10-13T16:36:33.024Z,100814.22
2022-10-13T16:38:36.024Z,100813.38
2022-10-13T16:40:39.709Z,100811.63
2022-10-13T16:42:44.925Z,100801.13
2022-10-13T16:44:47.757Z,100803.75
2022-10-13T16:46:52.426Z,100801.13
2022-10-13T16:48:55.070Z,100802.88
2022-10-13T16:50:57.973Z,100811.59
2022-10-13T16:53:01.283Z,100811.59
2022-10-13T16:55:04.679Z,100809.88
2022-10-13T16:57:07.467Z,100810.72
2022-10-13T16:59:12.129Z,100807.25
2022-10-13T17:01:14.815Z,100810.75
2022-10-13T17:03:17.808Z,100808.97
2022-10-13T17:05:23.829Z,100810.72
2022-10-13T17:07:29.537Z,100802.88
2022-10-13T17:09:32.634Z,100806.34
2022-10-13T17:11:35.718Z,100808.13
2022-10-13T17:13:41.037Z,100804.59
2022-10-13T17:15:51.624Z,100813.34
2022-10-13T17:17:54.422Z,100809.84
2022-10-13T17:19:57.211Z,100813.34
2022-10-13T17:21:59.952Z,100815.09
2022-10-13T17:24:02.764Z,100808.97
2022-10-13T17:26:07.659Z,100809.84
2022-10-13T17:28:10.583Z,100807.22
2022-10-13T17:30:13.349Z,100811.59
2022-10-13T17:32:17.459Z,100808.97
2022-10-13T17:34:20.244Z,100813.34
2022-10-13T17:36:26.501Z,100815.94
2022-10-13T17:38:30.322Z,100811.59
2022-10-13T17:40:34.695Z,100815.09
2022-10-13T17:42:38.441Z,100808.13
2022-10-13T17:44:42.581Z,100813.34
2022-10-13T17:46:48.397Z,100813.31
2022-10-13T17:48:52.653Z,100817.69
2022-10-13T17:50:55.432Z,100820.31
2022-10-13T17:52:58.404Z,100826.41
2022-10-13T17:55:01.181Z,100823.78
2022-10-13T17:57:04.066Z,100818.56
2022-10-13T17:59:06.875Z,100815.09
2022-10-13T18:01:13.862Z,100821.19
2022-10-13T18:03:16.764Z,100816.84
2022-10-13T18:05:21.979Z,100818.56
2022-10-13T18:07:24.825Z,100819.41
2022-10-13T18:09:27.632Z,100822.03
2022-10-13T18:11:30.496Z,100825.56
2022-10-13T18:13:33.774Z,100822.03
2022-10-13T18:15:37.017Z,100827.28
2022-10-13T18:17:39.783Z,100828.16
2022-10-13T18:19:42.842Z,100830.78
2022-10-13T18:21:46.983Z,100835.13
2022-10-13T18:23:50.296Z,100837.75
2022-10-13T18:25:53.088Z,100838.63
2022-10-13T18:27:57.122Z,100824.66
2022-10-13T18:29:59.982Z,100822.03
2022-10-13T18:32:05.090Z,100817.66
2022-10-13T18:34:11.138Z,100830.78
2022-10-13T18:36:16.259Z,100815.03
2022-10-13T18:38:20.362Z,100810.69
2022-10-13T18:40:23.114Z,100817.66
2022-10-13T18:42:27.616Z,100819.41
2022-10-13T18:44:30.358Z,100820.28
2022-10-13T18:46:34.345Z,100822.03
2022-10-13T18:48:37.197Z,100824.63
2022-10-13T18:50:41.488Z,100822.88
2022-10-13T18:52:44.333Z,100826.41
2022-10-13T18:54:50.620Z,100830.75
2022-10-13T18:56:54.537Z,100820.28
2022-10-13T18:58:59.920Z,100815.94
2022-10-13T19:01:04.397Z,100813.31
2022-10-13T19:03:07.660Z,100808.94
2022-10-13T19:05:11.358Z,100813.31
2022-10-13T19:07:14.118Z,100820.28
2022-10-13T19:09:18.055Z,100817.66
2022-10-13T19:11:22.428Z,100814.19
2022-10-13T19:13:26.022Z,100815.94
2022-10-13T19:15:28.859Z,100820.31
2022-10-13T19:17:33.559Z,100821.16
2022-10-13T19:19:36.384Z,100819.41
2022-10-13T19:21:39.916Z,100812.47
2022-10-13T19:23:44.994Z,100808.94
2022-10-13T19:25:57.251Z,100816.78
2022-10-13T19:28:01.395Z,100811.56
2022-10-13T19:30:04.765Z,100820.31
2022-10-13T19:32:07.765Z,100814.19
2022-10-13T19:34:11.783Z,100815.06
2022-10-13T19:36:22.601Z,100813.31
2022-10-13T19:38:25.412Z,100814.19
2022-10-13T19:40:28.176Z,100818.56
2022-10-13T19:42:31.040Z,100812.41
2022-10-13T19:44:36.570Z,100809.81
2022-10-13T19:46:39.816Z,100814.19
2022-10-13T19:48:43.198Z,100814.16
2022-10-13T19:50:47.121Z,100814.16
2022-10-13T19:52:51.325Z,100819.41
2022-10-13T19:54:54.250Z,100822.03
2022-10-13T19:56:57.079Z,100825.53
2022-10-13T19:59:00.429Z,100822.03
2022-10-13T20:01:06.718Z,100820.31
2022-10-13T20:03:09.777Z,100825.50
2022-10-13T20:05:15.673Z,100822.03
2022-10-13T20:07:18.911Z,100823.78
2022-10-13T20:09:22.001Z,100824.66
2022-10-13T20:11:24.722Z,100819.41
2022-10-13T20:13:27.488Z,100827.25
2022-10-13T20:15:40.094Z,100831.63
2022-10-13T20:17:44.270Z,100828.13
2022-10-13T20:19:47.116Z,100830.72
2022-10-13T20:21:51.606Z,100825.50
2022-10-13T20:23:54.381Z,100828.97
2022-10-13T20:25:57.167Z,100829.88
2022-10-13T20:28:04.312Z,100823.75
2022-10-13T20:30:08.295Z,100828.97
2022-10-13T20:32:11.106Z,100826.34
2022-10-13T20:34:15.250Z,100823.75
2022-10-13T20:36:18.789Z,100831.59
2022-10-13T20:38:21.538Z,100824.63
2022-10-13T20:40:24.279Z,100830.72
2022-10-13T20:42:27.080Z,100826.34
2022-10-13T20:44:29.887Z,100817.66
2022-10-13T20:46:32.636Z,100817.66
2022-10-13T20:49:05.203Z,100811.56
2022-10-13T20:51:05.600Z,100815.88
2022-10-13T20:53:08.392Z,100815.03
2022-10-13T20:55:11.558Z,100815.03
2022-10-13T20:57:14.351Z,100812.41
2022-10-13T20:59:17.258Z,100815.03
2022-10-13T21:01:22.151Z,100812.41
2022-10-13T21:03:25.813Z,100811.53
2022-10-13T21:05:29.497Z,100811.53
2022-10-13T21:07:33.602Z,100815.03
2022-10-13T21:09:36.653Z,100817.63
2022-10-13T21:11:39.870Z,100821.97
2022-10-13T21:13:44.517Z,100818.50
2022-10-13T21:15:47.158Z,100813.19
2022-10-13T21:17:53.784Z,100813.22
2022-10-13T21:19:56.614Z,100808.88
2022-10-13T21:21:59.384Z,100807.16
2022-10-13T21:24:06.165Z,100814.13
2022-10-13T21:26:10.447Z,100827.19
2022-10-13T21:28:13.345Z,100818.50
2022-10-13T21:30:16.237Z,100818.50
2022-10-13T21:32:19.398Z,100814.09
2022-10-13T21:34:23.225Z,100822.84
2022-10-13T21:36:27.698Z,100819.34
2022-10-13T21:38:30.391Z,100825.47
2022-10-13T21:40:34.503Z,100828.94
2022-10-13T21:42:37.501Z,100832.44
2022-10-13T21:44:40.273Z,100830.72
2022-10-13T21:46:43.971Z,100834.19
2022-10-13T21:48:48.697Z,100835.03
2022-10-13T21:50:51.428Z,100832.41
2022-10-13T21:52:54.194Z,100832.44
2022-10-13T21:54:59.767Z,100830.66
2022-10-13T21:57:03.895Z,100839.41
2022-10-13T21:59:07.177Z,100837.63
2022-10-13T22:01:10.255Z,100837.63
2022-10-13T22:03:13.053Z,100837.63
2022-10-13T22:05:16.012Z,100835.84
2022-10-13T22:07:21.036Z,100837.59
2022-10-13T22:09:23.913Z,100828.84
2022-10-13T22:11:31.295Z,100837.59
2022-10-13T22:13:36.369Z,100832.38
2022-10-13T22:15:39.141Z,100838.47
2022-10-13T22:17:41.885Z,100840.22
2022-10-13T22:19:44.674Z,100835.84
2022-10-13T22:21:48.910Z,100840.22
2022-10-13T22:23:51.776Z,100841.06
2022-10-13T22:25:55.084Z,100837.59
2022-10-13T22:27:57.832Z,100842.81
2022-10-13T22:30:01.903Z,100842.81
2022-10-13T22:32:05.073Z,100843.69
2022-10-13T22:34:07.884Z,100848.06
2022-10-13T22:36:13.299Z,100842.81
2022-10-13T22:38:16.463Z,100845.50
2022-10-13T22:40:19.316Z,100839.38
2022-10-13T22:42:22.182Z,100834.97
2022-10-13T22:44:24.969Z,100840.22
2022-10-13T22:46:30.951Z,100834.09
2022-10-13T22:48:39.693Z,100838.44
2022-10-13T22:50:45.754Z,100841.06
2022-10-13T22:52:48.507Z,100836.69
2022-10-13T22:54:51.229Z,100839.31
2022-10-13T22:56:54.008Z,100836.69
2022-10-13T22:58:58.720Z,100835.84
2022-10-13T23:01:06.186Z,100830.59
2022-10-13T23:03:14.040Z,100833.22
2022-10-13T23:05:21.837Z,100832.34
2022-10-13T23:07:24.661Z,100844.53
2022-10-13T23:09:27.492Z,100839.31
2022-10-13T23:11:30.255Z,100830.59
2022-10-13T23:13:33.094Z,100827.97
2022-10-13T23:15:38.795Z,100834.91
2022-10-13T23:17:41.567Z,100833.19
2022-10-13T23:19:45.785Z,100818.38
2022-10-13T23:21:48.581Z,100827.06
2022-10-13T23:23:55.602Z,100821.84
2022-10-13T23:26:03.086Z,100825.38
2022-10-13T23:28:06.185Z,100824.50
2022-10-13T23:30:10.015Z,100819.28
2022-10-13T23:32:12.780Z,100818.38
2022-10-13T23:34:18.210Z,100819.22
2022-10-13T23:36:24.920Z,100819.28
2022-10-13T23:38:30.981Z,100819.22
2022-10-13T23:40:34.649Z,100818.34
2022-10-13T23:42:37.412Z,100817.50
2022-10-13T23:44:40.192Z,100811.38
2022-10-13T23:46:42.968Z,100807.88
2022-10-13T23:48:46.695Z,100813.13
2022-10-13T23:50:49.425Z,100811.38
2022-10-13T23:52:53.543Z,100805.28
2022-10-13T23:54:56.321Z,100812.22